X  Close Metar Aviation Weather Data     EGHH Bournemouth Airport
Temperature
16°C Temperature
12°C Dewpoint
77% Humidity



Wind
5 MPH
8 KM/H
2 M/S
4 KTS



200°
SSW
Current Conditions

Clear Clear
Pressure 1011.85 (hPa) - 29.88 (inHg)
Visibility 6 (mile) - 9.7 (km)
Airport
Airport-code EGHH

Location: Bournemouth Airport
Distance: 14 (mi)

Metar:
EGHH 141950Z 20004KT CAVOK 16/12 Q1012

Time: 14-07-2024 19:50 BST